PWSweather.com
Personal Weather Stations
Station Observations
WH6KOWX
Next To Mccormick Park, St Helens, OR 97051-2144

Next To Mccormick ParkSt Helens, OR 97051-2144

Lat: 45.85439, Lon: -122.81898

Elevation: 79

Station Type: DAVIS Vantage Pro2 PLUS (6163)

http://www.wh6ko.net/wxhome.html

Latest ConditionsUpdated 7:20:23 PM PST Friday, Dec 19, 2014
Currently Today's Max Today's Min Today's Average
Temperature 46.5°F8.1°C 50.6°F10.3°C 45.0°F7.2°C 46.8°F8.2°C
Dew Point 45.7°F7.6°C 48.5°F9.2°C 44.7°F7.1°C 46.0°F7.8°C
Winds Calm Calm 4.0 mph E6.4 kmh E - 0.2 mph 0.3 kmh
Wind Gusts 2.0 mph3.2 kmh 5.0 mph8.0 kmh - -
Humidity 97% 100% 89% 97%
Pressure 29.93 in1013.5 mb 29.97 in1014.9 mb 29.79 in1008.8 mb -
Hour Temp Dew Point Humidity Winds Wind Gusts Pressure Precip Precip Rate Daily Precip Total
07:20 PM 46.5°F8.1°C 45.7°F7.6°C 97% Calm Calm 2.0 mph3.2 kmh 29.93 in1013.5 mb 0.00 in0.0 mm 0.00 in/hr0.0 mm/hr 0.08 in2.0 mm
07:00 PM 46.5°F8.1°C 45.7°F7.6°C 97% Calm Calm -- 29.93 in1013.5 mb 0.00 in0.0 mm 0.00 in/hr0.0 mm/hr 0.08 in2.0 mm
06:40 PM 46.6°F8.1°C 45.5°F7.5°C 96% Calm Calm -- 29.93 in1013.5 mb 0.00 in0.0 mm 0.00 in/hr0.0 mm/hr 0.08 in2.0 mm
06:20 PM 46.8°F8.2°C 45.7°F7.6°C 96% Calm Calm -- 29.92 in1013.2 mb 0.00 in0.0 mm 0.00 in/hr0.0 mm/hr 0.08 in2.0 mm
06:00 PM 47.0°F8.3°C 45.7°F7.6°C 95% Calm Calm -- 29.93 in1013.5 mb 0.00 in0.0 mm 0.00 in/hr0.0 mm/hr 0.08 in2.0 mm
05:40 PM 47.3°F8.5°C 45.9°F7.7°C 95% Calm Calm -- 29.94 in1013.9 mb 0.00 in0.0 mm 0.00 in/hr0.0 mm/hr 0.08 in2.0 mm
05:20 PM 47.5°F8.6°C 46.1°F7.8°C 95% Calm Calm -- 29.94 in1013.9 mb 0.00 in0.0 mm 0.00 in/hr0.0 mm/hr 0.08 in2.0 mm
05:00 PM 47.8°F8.8°C 46.2°F7.9°C 94% Calm Calm -- 29.93 in1013.5 mb 0.00 in0.0 mm 0.00 in/hr0.0 mm/hr 0.08 in2.0 mm
04:40 PM 48.3°F9.1°C 46.7°F8.2°C 94% Calm Calm -- 29.93 in1013.5 mb 0.00 in0.0 mm 0.00 in/hr0.0 mm/hr 0.08 in2.0 mm
04:20 PM 48.8°F9.3°C 46.9°F8.3°C 93% Calm Calm -- 29.93 in1013.5 mb 0.00 in0.0 mm 0.00 in/hr0.0 mm/hr 0.08 in2.0 mm
04:00 PM 49.2°F9.6°C 47.3°F8.5°C 93% Calm Calm -- 29.94 in1013.9 mb 0.00 in0.0 mm 0.00 in/hr0.0 mm/hr 0.08 in2.0 mm
03:40 PM 49.6°F9.8°C 47.7°F8.7°C 93% Calm Calm 3.0 mph4.8 kmh 29.94 in1013.9 mb 0.00 in0.0 mm 0.00 in/hr0.0 mm/hr 0.08 in2.0 mm
03:20 PM 50.0°F10.0°C 48.1°F8.9°C 93% Calm Calm -- 29.94 in1013.9 mb 0.00 in0.0 mm 0.00 in/hr0.0 mm/hr 0.08 in2.0 mm
03:00 PM 50.3°F10.2°C 48.1°F8.9°C 92% Calm Calm -- 29.95 in1014.2 mb 0.00 in0.0 mm 0.00 in/hr0.0 mm/hr 0.08 in2.0 mm
02:40 PM 50.5°F10.3°C 48.3°F9.1°C 92% Calm Calm 1.0 mph1.6 kmh 29.94 in1013.9 mb 0.00 in0.0 mm 0.00 in/hr0.0 mm/hr 0.08 in2.0 mm
02:20 PM 50.4°F10.2°C 48.5°F9.2°C 93% Calm Calm 2.0 mph3.2 kmh 29.94 in1013.9 mb 0.00 in0.0 mm 0.00 in/hr0.0 mm/hr 0.08 in2.0 mm
02:00 PM 50.6°F10.3°C 48.1°F8.9°C 91% Calm Calm -- 29.95 in1014.2 mb 0.00 in0.0 mm 0.00 in/hr0.0 mm/hr 0.08 in2.0 mm
01:40 PM 50.6°F10.3°C 47.8°F8.8°C 90% Calm Calm 2.0 mph3.2 kmh 29.95 in1014.2 mb 0.00 in0.0 mm 0.00 in/hr0.0 mm/hr 0.08 in2.0 mm
01:20 PM 50.2°F10.1°C 47.1°F8.4°C 89% Calm Calm 5.0 mph8.0 kmh 29.95 in1014.2 mb 0.00 in0.0 mm 0.00 in/hr0.0 mm/hr 0.08 in2.0 mm
01:00 PM 48.8°F9.3°C 46.9°F8.3°C 93% Calm Calm -- 29.96 in1014.6 mb 0.00 in0.0 mm 0.00 in/hr0.0 mm/hr 0.08 in2.0 mm
12:40 PM 48.1°F8.9°C 46.7°F8.2°C 95% Calm Calm 4.0 mph6.4 kmh 29.97 in1014.9 mb 0.00 in0.0 mm 0.00 in/hr0.0 mm/hr 0.08 in2.0 mm
12:20 PM 47.9°F8.8°C 46.5°F8.1°C 95% 4.0 mph E6.4 kmh E 4.0 mph6.4 kmh 29.97 in1014.9 mb 0.00 in0.0 mm 0.00 in/hr0.0 mm/hr 0.08 in2.0 mm
12:00 PM 47.6°F8.7°C 46.2°F7.9°C 95% Calm Calm 1.0 mph1.6 kmh 29.97 in1014.9 mb 0.00 in0.0 mm 0.00 in/hr0.0 mm/hr 0.08 in2.0 mm
11:40 AM 47.7°F8.7°C 46.1°F7.8°C 94% Calm Calm 3.0 mph4.8 kmh 29.97 in1014.9 mb 0.00 in0.0 mm 0.00 in/hr0.0 mm/hr 0.08 in2.0 mm
11:20 AM 47.9°F8.8°C 46.8°F8.2°C 96% Calm Calm 5.0 mph8.0 kmh 29.97 in1014.9 mb 0.00 in0.0 mm 0.00 in/hr0.0 mm/hr 0.08 in2.0 mm
11:00 AM 47.5°F8.6°C 47.0°F8.3°C 98% 2.0 mph W3.2 kmh W 3.0 mph4.8 kmh 29.96 in1014.6 mb 0.00 in0.0 mm 0.00 in/hr0.0 mm/hr 0.08 in2.0 mm
10:40 AM 47.7°F8.7°C 47.7°F8.7°C 100% 1.0 mph ENE1.6 kmh ENE 3.0 mph4.8 kmh 29.96 in1014.6 mb 0.00 in0.0 mm 0.00 in/hr0.0 mm/hr 0.08 in2.0 mm
10:20 AM 46.8°F8.2°C 46.8°F8.2°C 100% Calm Calm 4.0 mph6.4 kmh 29.96 in1014.6 mb 0.00 in0.0 mm 0.00 in/hr0.0 mm/hr 0.08 in2.0 mm
10:00 AM 46.4°F8.0°C 46.4°F8.0°C 100% Calm Calm -- 29.96 in1014.6 mb 0.00 in0.0 mm 0.00 in/hr0.0 mm/hr 0.08 in2.0 mm
09:40 AM 46.1°F7.8°C 46.1°F7.8°C 100% 1.0 mph SE1.6 kmh SE 1.0 mph1.6 kmh 29.94 in1013.9 mb 0.00 in0.0 mm 0.00 in/hr0.0 mm/hr 0.08 in2.0 mm
09:20 AM 45.2°F7.3°C 45.2°F7.3°C 100% 1.0 mph E1.6 kmh E 4.0 mph6.4 kmh 29.94 in1013.9 mb 0.00 in0.0 mm 0.00 in/hr0.0 mm/hr 0.08 in2.0 mm
09:00 AM 45.0°F7.2°C 45.0°F7.2°C 100% Calm Calm -- 29.93 in1013.5 mb 0.00 in0.0 mm 0.00 in/hr0.0 mm/hr 0.08 in2.0 mm
08:40 AM 45.0°F7.2°C 45.0°F7.2°C 100% Calm Calm -- 29.91 in1012.9 mb 0.00 in0.0 mm 0.00 in/hr0.0 mm/hr 0.08 in2.0 mm
08:20 AM 45.1°F7.3°C 45.1°F7.3°C 100% Calm Calm 1.0 mph1.6 kmh 29.91 in1012.9 mb 0.00 in0.0 mm 0.00 in/hr0.0 mm/hr 0.08 in2.0 mm
08:00 AM 45.1°F7.3°C 45.1°F7.3°C 100% Calm Calm -- 29.91 in1012.9 mb 0.00 in0.0 mm 0.00 in/hr0.0 mm/hr 0.08 in2.0 mm
07:40 AM 45.0°F7.2°C 44.7°F7.1°C 99% Calm Calm 1.0 mph1.6 kmh 29.89 in1012.2 mb 0.00 in0.0 mm 0.00 in/hr0.0 mm/hr 0.08 in2.0 mm
07:20 AM 45.2°F7.3°C 44.9°F7.2°C 99% Calm Calm -- 29.88 in1011.9 mb 0.00 in0.0 mm 0.00 in/hr0.0 mm/hr 0.08 in2.0 mm
07:00 AM 45.3°F7.4°C 45.3°F7.4°C 100% Calm Calm -- 29.88 in1011.9 mb 0.00 in0.0 mm 0.00 in/hr0.0 mm/hr 0.08 in2.0 mm
06:40 AM 45.4°F7.4°C 45.4°F7.4°C 100% Calm Calm 1.0 mph1.6 kmh 29.87 in1011.5 mb 0.00 in0.0 mm 0.00 in/hr0.0 mm/hr 0.08 in2.0 mm
06:20 AM 45.5°F7.5°C 45.5°F7.5°C 100% Calm Calm 2.0 mph3.2 kmh 29.87 in1011.5 mb 0.00 in0.0 mm 0.00 in/hr0.0 mm/hr 0.08 in2.0 mm
06:00 AM 45.4°F7.4°C 45.4°F7.4°C 100% Calm Calm -- 29.86 in1011.2 mb 0.00 in0.0 mm 0.00 in/hr0.0 mm/hr 0.08 in2.0 mm
05:40 AM 45.3°F7.4°C 45.3°F7.4°C 100% Calm Calm -- 29.87 in1011.5 mb 0.01 in0.3 mm 0.00 in/hr0.0 mm/hr 0.08 in2.0 mm
05:20 AM 45.3°F7.4°C 45.3°F7.4°C 100% Calm Calm -- 29.86 in1011.2 mb 0.01 in0.3 mm 0.00 in/hr0.0 mm/hr 0.08 in2.0 mm
05:00 AM 45.3°F7.4°C 45.3°F7.4°C 100% Calm Calm -- 29.86 in1011.2 mb 0.01 in0.3 mm 0.00 in/hr0.0 mm/hr 0.08 in2.0 mm
04:40 AM 45.4°F7.4°C 45.4°F7.4°C 100% Calm Calm 2.0 mph3.2 kmh 29.85 in1010.8 mb 0.03 in0.8 mm 0.00 in/hr0.0 mm/hr 0.08 in2.0 mm
04:20 AM 45.6°F7.6°C 45.6°F7.6°C 100% Calm Calm 2.0 mph3.2 kmh 29.85 in1010.8 mb 0.04 in1.0 mm 0.00 in/hr0.0 mm/hr 0.08 in2.0 mm
04:00 AM 45.8°F7.7°C 45.8°F7.7°C 100% Calm Calm -- 29.85 in1010.8 mb 0.04 in1.0 mm 0.02 in/hr0.5 mm/hr 0.08 in2.0 mm
03:40 AM 45.9°F7.7°C 45.9°F7.7°C 100% Calm Calm 1.0 mph1.6 kmh 29.87 in1011.5 mb 0.03 in0.8 mm 0.09 in/hr2.3 mm/hr 0.07 in1.8 mm
03:20 AM 45.8°F7.7°C 45.8°F7.7°C 100% Calm Calm 2.0 mph3.2 kmh 29.85 in1010.8 mb 0.00 in0.0 mm 0.00 in/hr0.0 mm/hr 0.04 in1.0 mm
03:00 AM 45.7°F7.6°C 45.7°F7.6°C 100% Calm Calm -- 29.85 in1010.8 mb 0.00 in0.0 mm 0.00 in/hr0.0 mm/hr 0.04 in1.0 mm
02:40 AM 45.5°F7.5°C 45.5°F7.5°C 100% Calm Calm 3.0 mph4.8 kmh 29.84 in1010.5 mb 0.00 in0.0 mm 0.00 in/hr0.0 mm/hr 0.04 in1.0 mm
02:20 AM 45.2°F7.3°C 44.9°F7.2°C 99% Calm Calm 4.0 mph6.4 kmh 29.84 in1010.5 mb 0.00 in0.0 mm 0.00 in/hr0.0 mm/hr 0.04 in1.0 mm
02:00 AM 45.0°F7.2°C 44.7°F7.1°C 99% Calm Calm -- 29.83 in1010.2 mb 0.00 in0.0 mm 0.00 in/hr0.0 mm/hr 0.04 in1.0 mm
01:40 AM 45.0°F7.2°C 44.7°F7.1°C 99% Calm Calm 2.0 mph3.2 kmh 29.82 in1009.8 mb 0.00 in0.0 mm 0.00 in/hr0.0 mm/hr 0.04 in1.0 mm
01:20 AM 45.0°F7.2°C 44.7°F7.1°C 99% Calm Calm -- 29.82 in1009.8 mb 0.00 in0.0 mm 0.00 in/hr0.0 mm/hr 0.04 in1.0 mm
01:00 AM 45.0°F7.2°C 44.7°F7.1°C 99% Calm Calm -- 29.82 in1009.8 mb 0.00 in0.0 mm 0.00 in/hr0.0 mm/hr 0.04 in1.0 mm
12:40 AM 45.0°F7.2°C 44.7°F7.1°C 99% Calm Calm 1.0 mph1.6 kmh 29.79 in1008.8 mb 0.02 in0.5 mm 0.00 in/hr0.0 mm/hr 0.04 in1.0 mm
12:20 AM 45.2°F7.3°C 44.9°F7.2°C 99% Calm Calm 3.0 mph4.8 kmh 29.79 in1008.8 mb 0.04 in1.0 mm 0.00 in/hr0.0 mm/hr 0.04 in1.0 mm
12:00 AM 45.2°F7.3°C 44.9°F7.2°C 99% Calm Calm 2.0 mph3.2 kmh 29.79 in1008.8 mb 0.04 in1.0 mm 0.00 in/hr0.0 mm/hr 0.04 in1.0 mm